Airfield :
LOGIN :

Register | Disclaimer

   EN    FR    IT 

 










Legend :    VFR   Marginal VFR   IFR   Intensive IFR   Very Intensive IFR
Visi :
Ceiling :
>= 8 km
>= 3000ft
5 to 8 km
1000 to 3000 ft
1500m to 5 km
500 to 1000 ft
800 to 1500m
200 to 500 ft
< 800m
< 200 ft
Symbols :   Thunderstorms  Fog  Heavy snow  Heavy precipitations  Wind > 20 kt
SIGMETs :     Misc.  Thunderstorms  Icing  Turbulence  Mountain Waves  Volcanic Ashes






- Airport Elevation : 348 ft
- IATA code : STN


EGSS - London Stansted

CURRENT METAR :
  • 251820Z AUTO 26011KT 9999 FEW032 SCT039 17/11 Q1013

EXPIRED METARs :
  • 251750Z AUTO 26011KT 230V300 9999 BKN034 17/10 Q1013
  • 251720Z AUTO 26010KT 9999 BKN035 18/10 Q1012
  • 251650Z AUTO 24011KT 9999 SCT028 BKN036 18/12 Q1012
  • 251620Z AUTO 24013KT 9999 SCT030 BKN036 BKN044 18/12 Q1012
  • 251550Z 23014KT 9999 BKN035 17/12 Q1011

TAF TAF EGSS
Valid from the 25 at 18:00 until the 27 at 00:00 UTC


251659Z 2518/2624 25010KT 9999 SCT029
TEMPO 2612/2618 26016G26KT
PROB40
TEMPO 2621/2624 BKN010
ATIS : +44 1279 669 325



MET'MAP, your aeronautical weather chart ! - Copyright ORBIFLY December 2007 - Disclaimer

ORBIFLY MET'MAP TEAM :

Programming & Development : Alexandra Zaïnal
Original concept : Baudouin d'Aumeries
Technical & hardware support : Manuel Goepfert
Assistance : Marc-Olivier Méhu

Contact : metmap@orbifly.com




SOURCES & CREDITS :

   NOAA